Terminal Aerodrome Forecast
Issued by NWS

Home | Current Version | Previous Version | Text Only | Print | Product List | Glossary On
Versions: 1 2 3 4 5 6 7 8 9 10 11 12 13 14
000
FTUS45 KABQ 041145
TAFAEG
TAF
KAEG 041145Z 0412/0512 00000KT P6SM FEW070
     FM041900 18007KT P6SM VCSH SCT070
      TEMPO 0422/0502 5SM -TSRA OVC030CB
     FM050200 26009KT P6SM VCTS OVC040CB
     FM050600 30007KT P6SM BKN050=

USA.gov is the U.S. government's official web portal to all federal, state and local government web resources and services.